CheckWX is a tool to help pilots better visualize weather data.  It is not intended as a substitute for an official pre-flight weather briefing.

07:08:45 UTC

KSCR METAR
Siler City Municipal Airport
Siler City, North Carolina, USA
Current

14 mins ago

KSCR 230655Z AUTO 00000KT 10SM CLR 18/16 A3011 RMK AO2 T01750160
Observed
Sep-23 @ 06:55 UTC
Visibility
10 SM
Flight Rules
VFR
Cloud Levels
  • Clear skies
Temperature
18°C / 64°F
Dewpoint
16°C / 61°F
Humidity
88%
Altimeter
30.11" Hg
Pressure
1019.62 hPa
Previous

34 mins ago

KSCR 230635Z AUTO 00000KT 10SM CLR 17/16 A3011 RMK AO2 T01700157
Observed
Sep-23 @ 06:35 UTC
Visibility
10 SM
Flight Rules
VFR
Cloud Levels
  • Clear skies
Temperature
17°C / 63°F
Dewpoint
16°C / 61°F
Humidity
94%
Altimeter
30.11" Hg
Pressure
1019.62 hPa
Previous

54 mins ago

KSCR 230615Z AUTO 00000KT 10SM CLR 18/16 A3012 RMK AO2 T01810160
Observed
Sep-23 @ 06:15 UTC
Visibility
10 SM
Flight Rules
VFR
Cloud Levels
  • Clear skies
Temperature
18°C / 64°F
Dewpoint
16°C / 61°F
Humidity
88%
Altimeter
30.12" Hg
Pressure
1020.02 hPa